ADDS TAF Data INFO
IDs: Format: Raw Decoded Include METARs

Data at: 1957 UTC 15 Dec 2017

Region: TOP
KATL 151953Z 1520/1624 30012G20KT P6SM SCT120 BKN250
  FM160000 31010KT P6SM BKN250
  FM160300 30004KT P6SM SCT250
  FM161900 26006KT P6SM SCT250


KBOS 151725Z 1518/1624 20005KT P6SM OVC150
  FM152200 19004KT 6SM -SN BKN040 OVC070
  FM160400 27006KT P6SM BKN050
  FM161000 27008G18KT P6SM FEW150
  FM161800 28012G22KT P6SM SCT070


KBWI 151737Z 1518/1624 VRB04KT 2SM -SN SCT008 OVC025
  FM152100 VRB04KT 5SM -SN BKN035 OVC050
  FM152300 VRB04KT P6SM BKN050
  FM160100 26006KT P6SM SCT050 SCT250
  FM161100 23006KT P6SM SCT050 BKN130
  FM161500 23008G16KT P6SM SCT050 BKN130


KCLE 151831Z 1519/1624 23014KT 5SM -SN OVC035
  TEMPO 1519/1521 2SM -SN OVC015
  FM160100 26014G22KT P6SM VCSH OVC025
  TEMPO 1602/1606 4SM -SN OVC015
  FM161000 25012KT 4SM -SHSN BKN015 OVC025
  FM161500 25012KT P6SM -SHSN OVC025


KCLT 151951Z 1520/1624 30007KT P6SM SCT250
  FM160000 33002KT P6SM FEW250
  FM161300 22005KT P6SM FEW250


KCVG 151720Z 1518/1624 25012G18KT P6SM OVC035
  TEMPO 1519/1522 BKN025
  FM160000 24007KT P6SM FEW050 SCT100
  FM161400 21012G18KT P6SM SKC
  FM162300 19012KT P6SM SCT250


KDCA 151931Z 1520/1624 VRB04KT 2SM -SN SCT008 OVC025
  FM152100 VRB04KT P6SM BKN050
  FM160000 26006KT P6SM SCT050 SCT250
  FM161100 23006KT P6SM SCT050 BKN130
  FM161500 23008G16KT P6SM SCT050 BKN130


KDEN 151938Z 1520/1624 25011KT P6SM FEW120 SCT220
  FM160200 22012KT P6SM FEW150 BKN220
  FM161000 23008KT P6SM BKN140
  FM161600 03010KT P6SM OVC140


KDFW 151730Z 1518/1624 33008KT P6SM SCT250
  FM160100 21006KT P6SM SCT250


KDTW 151906Z 1519/1624 24018G24KT 4SM -SN OVC020
  TEMPO 1519/1521 2SM -SHSN OVC020
  FM152100 27012KT 5SM -SHSN OVC020
  FM152300 26010KT 6SM -SN OVC035
  FM160600 24008KT 6SM -SN OVC025
  FM161100 30006KT 4SM -SHSN OVC020


KEWR 151912Z 1519/1624 VRB05KT P6SM -SN SCT030 BKN050
  FM152000 26006KT 2SM -SN SCT015 OVC025
  TEMPO 1521/1524 1/2SM SN VV009
  FM160200 26009KT P6SM SCT035 BKN070
  FM160400 26011KT P6SM SCT150
  FM161200 27014G20KT P6SM FEW070 FEW250
  FM161500 27017G25KT P6SM SCT040
  FM161800 27019G27KT P6SM BKN040


KFLL 151926Z 1519/1624 13006KT P6SM FEW030 SCT250
  FM152300 VRB02KT P6SM SCT250
  FM161500 05006KT P6SM SCT250
  FM161700 07008KT P6SM SCT030


KIAD 151931Z 1520/1624 VRB04KT 2SM -SN SCT008 OVC025
  FM152100 VRB04KT P6SM BKN050
  FM160000 26006KT P6SM SCT050 SCT250
  FM161100 23006KT P6SM SCT050 BKN130
  FM161500 23008G16KT P6SM SCT050 BKN130


KIAH 151731Z 1518/1624 01008KT P6SM BKN150 OVC250
  FM152000 02006KT P6SM OVC250
  FM160000 VRB03KT P6SM SCT080 OVC150
  FM161500 12007KT P6SM BKN060 OVC100


KJFK 151912Z 1519/1624 21006KT P6SM -SN SCT030 BKN050
  FM152000 26006KT 2SM -SN SCT015 OVC025
  TEMPO 1521/1524 1/2SM SN VV007
  FM160200 28009KT P6SM SCT035 BKN070
  FM160400 28011KT P6SM SCT150
  FM160700 27014G20KT P6SM FEW070 FEW250
  FM161500 27017G25KT P6SM SCT040
  FM161800 27020G28KT P6SM BKN040


KLAS 151720Z 1518/1624 20005KT P6SM FEW250
  FM152100 06006KT P6SM SCT200
  FM160200 VRB05KT P6SM BKN200
  FM160700 36007KT P6SM BKN200
  FM161500 VRB05KT P6SM SCT100 BKN150


KLAX 151740Z 1518/1624 VRB03KT P6SM SKC
  FM152000 26009KT P6SM SKC
  FM160300 26004KT P6SM SKC
  FM160800 VRB03KT P6SM BKN250
  FM161500 11005KT P6SM BKN250
  FM162100 25007KT P6SM SCT250


KLGA 151912Z 1519/1624 21005KT P6SM -SN SCT030 BKN050
  FM152000 26006KT 2SM -SN SCT015 OVC025
  TEMPO 1521/1524 1/2SM SN VV007
  FM160200 27009KT P6SM SCT035 BKN070
  FM160400 28011KT P6SM SCT150
  FM160700 27014G20KT P6SM FEW070 FEW250
  FM161500 27017G25KT P6SM SCT040
  FM161800 27019G27KT P6SM BKN040


KMCO 151934Z 1520/1624 23011G17KT P6SM SCT045 BKN060
  FM160000 VRB05KT P6SM FEW040 SCT250
  FM160900 36006KT P6SM FEW025 SCT070
  FM161800 04007KT P6SM SCT045 SCT070


KMDW 151732Z 1518/1624 29015G23KT P6SM SCT025 BKN040
  FM151900 27014G22KT P6SM -SN BKN025 OVC040
  FM152200 23009KT P6SM SCT025 OVC040
  FM160100 23007KT P6SM -SHSN BKN025 OVC040
  FM160400 20007KT P6SM SCT030 BKN080
  FM162100 16007KT P6SM FEW150


KMEM 151730Z 1518/1624 26007KT P6SM SCT250
  FM160000 21004KT P6SM SKC
  FM161500 20010G16KT P6SM SCT250


KMIA 151925Z 1519/1624 13005KT P6SM FEW030 BKN250
  FM152300 VRB03KT P6SM SCT250
  FM161500 06008KT P6SM SCT040


KMSP 151747Z 1518/1624 VRB03KT P6SM SCT015 BKN045
  FM152200 14005KT 4SM -SN OVC020
  FM160600 09005KT P6SM SCT015 OVC030
  FM161500 09007KT P6SM OVC040


KORD 151732Z 1518/1624 29015G23KT P6SM SCT025 BKN040
  FM151900 27014G22KT P6SM -SN BKN025 OVC040
  FM152200 23009KT P6SM SCT025 OVC040
  FM160100 23007KT P6SM -SHSN BKN025 OVC040
  FM160400 20007KT P6SM SCT030 BKN080
  FM162100 16007KT P6SM FEW150


KPDX 151731Z 1518/1618 10004KT P6SM VCSH OVC050
  FM151900 16005KT P6SM -RA BKN025 OVC050
  FM160000 23007KT P6SM VCSH SCT025 BKN035 OVC050
  FM160300 28007KT P6SM VCSH SCT025 BKN035 OVC050


KPHL 151759Z 1518/1624 VRB03KT 4SM -SN OVC040
  FM151900 VRB02KT 2SM -SN OVC025
  TEMPO 1520/1522 3/4SM -SN OVC015
  FM152230 00000KT 5SM -SN OVC025
  FM152330 VRB03KT P6SM BKN050
  FM161400 24009KT P6SM SCT045
  FM162300 27007KT P6SM SCT040


KPHX 151723Z 1518/1624 09012KT P6SM SKC
  FM152100 VRB04KT P6SM FEW250
  FM160400 11005KT P6SM FEW250
  FM161500 12009KT P6SM BKN180
  FM162100 12005KT P6SM OVC180


KPIT 151722Z 1518/1624 26008KT P6SM BKN100
  FM152200 24009KT P6SM VCSH BKN045
  FM160000 25011G22KT P6SM VCSH BKN025
  FM160900 25009KT P6SM VCSH BKN025
  FM161500 24009KT P6SM VCSH BKN060


KSAN 151720Z 1518/1624 30007KT P6SM SKC
  FM161300 VRB05KT P6SM BKN012
  FM161900 19006KT P6SM SCT015


KSEA 151920Z 1519/1624 17006KT P6SM VCSH BKN018 OVC050
  FM152000 18007KT 5SM -SHRA BR BKN015 OVC040
  FM160000 21008KT 6SM -SHRA BR BKN025 BKN040
  FM160400 21006KT P6SM BKN020 BKN035
  FM160800 VRB04KT P6SM OVC015
  FM161800 15005KT P6SM BKN025 OVC040


KSFO 151720Z 1518/1624 VRB03KT P6SM FEW200
  FM152200 29007KT P6SM BKN200
  FM160100 28012KT P6SM SCT150 BKN200
  FM160400 29014G21KT P6SM FEW025 BKN180
  FM160700 30020G28KT P6SM FEW090 SCT180
  FM161200 32024G32KT P6SM SCT200
  FM161900 34026G35KT P6SM FEW250


KSLC 151740Z 1518/1624 14007KT 6SM HZ SCT200
  FM152000 32006KT 6SM HZ BKN200
  FM160400 14005KT 6SM HZ SCT070 BKN110
  FM161100 30005KT P6SM VCSH SCT030 BKN060
  FM161500 33007KT 2SM -SHSN SCT009 BKN020
  FM162300 33009KT P6SM VCSH SCT020 BKN035


KSTL 151955Z 1520/1624 29010G18KT P6SM SCT045
  FM152100 27008KT P6SM SCT045
  FM160200 21005KT P6SM FEW250
  FM160600 21006KT P6SM FEW250 WS014/25040KT
  FM161500 21009KT P6SM SKC


KTPA 151735Z 1518/1624 24008KT P6SM SCT040 SCT250
  FM160000 30006KT P6SM FEW025 SCT250
  FM160900 02005KT P6SM SCT250
  FM161500 07006KT P6SM BKN250